createdAt,value
2023-01-22T00:00:33.872Z,6.50
2023-01-22T00:03:00.443Z,5.93
2023-01-22T00:05:26.869Z,5.75
2023-01-22T00:07:53.371Z,6.93
2023-01-22T00:10:20.051Z,6.35
2023-01-22T00:12:46.746Z,5.82
2023-01-22T00:15:13.109Z,6.47
2023-01-22T00:17:39.459Z,6.53
2023-01-22T00:20:06.911Z,6.18
2023-01-22T00:22:33.374Z,5.88
2023-01-22T00:24:59.733Z,7.10
2023-01-22T00:27:26.107Z,6.63
2023-01-22T00:29:52.509Z,6.40
2023-01-22T00:32:19.083Z,5.90
2023-01-22T00:34:52.089Z,6.07
2023-01-22T00:37:18.756Z,6.13
2023-01-22T00:39:45.108Z,5.85
2023-01-22T00:42:11.559Z,6.20
2023-01-22T00:44:38.008Z,6.28
2023-01-22T00:47:04.456Z,5.53
2023-01-22T00:49:30.868Z,6.82
2023-01-22T00:51:57.235Z,5.55
2023-01-22T00:54:23.645Z,4.40
2023-01-22T00:56:50.011Z,5.55
2023-01-22T00:59:16.528Z,5.43
2023-01-22T01:01:43.111Z,5.82
2023-01-22T01:04:09.637Z,5.43
2023-01-22T01:06:36.057Z,4.90
2023-01-22T01:09:02.553Z,4.28
2023-01-22T01:11:29.693Z,6.18
2023-01-22T01:13:56.152Z,4.95
2023-01-22T01:16:29.603Z,5.25
2023-01-22T01:18:58.529Z,4.95
2023-01-22T01:21:25.013Z,6.40
2023-01-22T01:23:51.537Z,5.03
2023-01-22T01:26:17.954Z,4.22
2023-01-22T01:28:45.372Z,5.10
2023-01-22T01:31:14.873Z,5.15
2023-01-22T01:33:41.632Z,4.25
2023-01-22T01:36:12.601Z,6.30
2023-01-22T01:38:39.031Z,4.80
2023-01-22T01:41:06.196Z,4.22
2023-01-22T01:43:32.760Z,5.88
2023-01-22T01:46:00.411Z,4.13
2023-01-22T01:48:26.874Z,4.47
2023-01-22T01:51:03.783Z,4.60
2023-01-22T01:53:30.449Z,4.10
2023-01-22T01:55:57.608Z,4.65
2023-01-22T01:58:25.737Z,4.43
2023-01-22T02:00:56.062Z,3.75
2023-01-22T02:03:22.577Z,3.85
2023-01-22T02:05:48.988Z,3.88
2023-01-22T02:08:15.479Z,3.80
2023-01-22T02:10:42.300Z,4.05
2023-01-22T02:13:12.573Z,4.65
2023-01-22T02:15:39.661Z,4.82
2023-01-22T02:18:06.235Z,4.03
2023-01-22T02:20:40.059Z,3.60
2023-01-22T02:23:06.672Z,4.00
2023-01-22T02:25:36.117Z,4.68
2023-01-22T02:28:02.530Z,4.30
2023-01-22T02:30:28.919Z,4.85
2023-01-22T02:32:55.371Z,4.45
2023-01-22T02:35:21.852Z,4.13
2023-01-22T02:37:48.337Z,3.80
2023-01-22T02:40:14.842Z,3.05
2023-01-22T02:42:41.874Z,3.47
2023-01-22T02:45:08.833Z,3.53
2023-01-22T02:47:36.238Z,3.53
2023-01-22T02:50:02.911Z,3.30
2023-01-22T02:52:29.670Z,3.38
2023-01-22T02:54:56.412Z,3.78
2023-01-22T02:57:22.825Z,4.35
2023-01-22T02:59:49.308Z,3.38
2023-01-22T03:02:15.755Z,3.67
2023-01-22T03:04:42.169Z,3.45
2023-01-22T03:07:08.608Z,3.30
2023-01-22T03:09:34.997Z,3.55
2023-01-22T03:12:01.407Z,2.85
2023-01-22T03:14:46.283Z,3.40
2023-01-22T03:17:31.070Z,3.58
2023-01-22T03:20:16.125Z,3.58
2023-01-22T03:22:42.680Z,3.63
2023-01-22T03:25:09.283Z,3.55
2023-01-22T03:27:35.711Z,3.65
2023-01-22T03:30:02.124Z,3.28
2023-01-22T03:32:28.573Z,3.70
2023-01-22T03:34:54.931Z,4.72
2023-01-22T03:37:21.391Z,3.00
2023-01-22T03:39:48.059Z,2.78
2023-01-22T03:42:14.464Z,3.20
2023-01-22T03:44:40.835Z,3.08
2023-01-22T03:47:07.186Z,2.85
2023-01-22T03:49:33.568Z,3.40
2023-01-22T03:51:59.915Z,2.95
2023-01-22T03:54:26.380Z,2.90
2023-01-22T03:56:52.773Z,3.00
2023-01-22T03:59:19.161Z,3.42
2023-01-22T04:01:45.597Z,3.78
2023-01-22T04:04:11.965Z,2.55
2023-01-22T04:06:38.385Z,2.30
2023-01-22T04:09:04.762Z,2.38
2023-01-22T04:11:31.250Z,3.47
2023-01-22T04:13:57.685Z,3.53
2023-01-22T04:16:24.273Z,2.88
2023-01-22T04:18:50.703Z,5.13
2023-01-22T04:21:17.123Z,3.58
2023-01-22T04:23:43.491Z,2.88
2023-01-22T04:26:09.920Z,2.97
2023-01-22T04:28:36.339Z,2.42
2023-01-22T04:31:04.590Z,3.55
2023-01-22T04:33:31.419Z,2.80
2023-01-22T04:35:58.202Z,2.40
2023-01-22T04:38:24.717Z,2.78
2023-01-22T04:40:51.186Z,2.30
2023-01-22T04:43:17.670Z,2.30
2023-01-22T04:45:44.063Z,2.30
2023-01-22T04:48:11.150Z,2.28
2023-01-22T04:50:37.614Z,3.15
2023-01-22T04:53:04.951Z,2.30
2023-01-22T04:55:31.316Z,2.40
2023-01-22T04:57:58.916Z,3.58
2023-01-22T05:00:26.117Z,2.50
2023-01-22T05:02:56.493Z,2.63
2023-01-22T05:05:22.969Z,2.97
2023-01-22T05:07:49.372Z,2.47
2023-01-22T05:10:16.291Z,1.90
2023-01-22T05:12:42.844Z,2.10
2023-01-22T05:15:23.072Z,2.47
2023-01-22T05:17:50.243Z,2.97
2023-01-22T05:20:17.233Z,2.53
2023-01-22T05:22:44.337Z,3.03
2023-01-22T05:25:10.710Z,2.55
2023-01-22T05:27:37.101Z,2.45
2023-01-22T05:30:05.360Z,2.22
2023-01-22T05:32:31.759Z,2.35
2023-01-22T05:34:58.118Z,2.25
2023-01-22T05:37:24.483Z,2.67
2023-01-22T05:39:50.905Z,2.03
2023-01-22T05:42:17.329Z,2.38
2023-01-22T05:44:43.808Z,2.17
2023-01-22T05:47:12.481Z,2.20
2023-01-22T05:49:38.979Z,3.35
2023-01-22T05:52:05.393Z,2.40
2023-01-22T05:54:31.800Z,1.75
2023-01-22T05:56:58.255Z,2.22
2023-01-22T05:59:24.673Z,2.25
2023-01-22T06:01:51.092Z,2.22
2023-01-22T06:04:17.464Z,1.92
2023-01-22T06:06:43.887Z,2.17
2023-01-22T06:09:12.889Z,2.25
2023-01-22T06:11:39.436Z,2.03
2023-01-22T06:14:06.206Z,1.90
2023-01-22T06:16:32.579Z,1.95
2023-01-22T06:18:58.947Z,2.28
2023-01-22T06:21:25.411Z,2.42
2023-01-22T06:23:51.852Z,1.90
2023-01-22T06:26:18.260Z,2.33
2023-01-22T06:28:44.744Z,1.88
2023-01-22T06:31:11.287Z,1.88
2023-01-22T06:33:38.301Z,2.03
2023-01-22T06:36:05.367Z,2.00
2023-01-22T06:38:31.913Z,1.80
2023-01-22T06:41:00.021Z,1.90
2023-01-22T06:43:27.312Z,1.70
2023-01-22T06:45:54.525Z,2.03
2023-01-22T06:48:20.898Z,1.90
2023-01-22T06:50:47.349Z,2.63
2023-01-22T06:53:14.151Z,1.88
2023-01-22T06:55:40.562Z,1.75
2023-01-22T06:58:07.012Z,2.70
2023-01-22T07:00:33.439Z,2.38
2023-01-22T07:02:59.954Z,2.25
2023-01-22T07:05:27.327Z,1.60
2023-01-22T07:07:55.075Z,2.20
2023-01-22T07:10:22.032Z,1.90
2023-01-22T07:12:49.751Z,2.00
2023-01-22T07:15:16.352Z,1.70
2023-01-22T07:17:42.743Z,2.30
2023-01-22T07:20:09.922Z,2.15
2023-01-22T07:22:36.358Z,2.67
2023-01-22T07:25:03.101Z,1.83
2023-01-22T07:27:32.418Z,1.83
2023-01-22T07:29:58.810Z,1.60
2023-01-22T07:32:25.195Z,2.50
2023-01-22T07:34:51.765Z,1.63
2023-01-22T07:37:18.220Z,1.42
2023-01-22T07:39:44.610Z,1.75
2023-01-22T07:42:12.433Z,1.60
2023-01-22T07:44:40.478Z,1.85
2023-01-22T07:47:06.918Z,1.40
2023-01-22T07:49:33.368Z,1.90
2023-01-22T07:51:59.868Z,1.95
2023-01-22T07:54:26.311Z,1.88
2023-01-22T07:56:52.686Z,1.65
2023-01-22T07:59:19.063Z,1.80
2023-01-22T08:01:45.504Z,1.95
2023-01-22T08:04:11.912Z,2.15
2023-01-22T08:06:38.301Z,1.50
2023-01-22T08:09:05.970Z,1.77
2023-01-22T08:11:32.394Z,1.75
2023-01-22T08:13:58.793Z,1.63
2023-01-22T08:16:25.263Z,1.65
2023-01-22T08:18:51.649Z,1.50
2023-01-22T08:21:18.080Z,2.05
2023-01-22T08:23:48.149Z,2.25
2023-01-22T08:26:15.526Z,1.75
2023-01-22T08:28:41.971Z,1.60
2023-01-22T08:31:16.364Z,1.40
2023-01-22T08:33:49.264Z,1.63
2023-01-22T08:36:15.742Z,1.55
2023-01-22T08:38:42.167Z,1.70
2023-01-22T08:41:08.575Z,1.20
2023-01-22T08:43:34.989Z,1.42
2023-01-22T08:46:01.558Z,1.95
2023-01-22T08:48:27.920Z,1.85
2023-01-22T08:50:54.314Z,1.48
2023-01-22T08:53:20.753Z,1.60
2023-01-22T08:55:50.277Z,1.60
2023-01-22T08:58:16.707Z,1.98
2023-01-22T09:00:44.465Z,1.83
2023-01-22T09:03:10.861Z,1.50
2023-01-22T09:05:39.808Z,1.50
2023-01-22T09:08:06.929Z,1.80
2023-01-22T09:10:33.487Z,1.40
2023-01-22T09:13:00.546Z,2.85
2023-01-22T09:15:27.296Z,1.73
2023-01-22T09:17:53.696Z,1.50
2023-01-22T09:20:20.404Z,1.45
2023-01-22T09:22:48.245Z,1.67
2023-01-22T09:25:15.487Z,2.30
2023-01-22T09:27:41.932Z,1.90
2023-01-22T09:30:09.624Z,1.85
2023-01-22T09:32:36.440Z,1.38
2023-01-22T09:35:02.883Z,1.67
2023-01-22T09:37:29.304Z,1.52
2023-01-22T09:39:55.787Z,1.25
2023-01-22T09:42:26.324Z,1.60
2023-01-22T09:44:55.757Z,2.90
2023-01-22T09:47:28.994Z,2.70
2023-01-22T09:50:08.077Z,2.50
2023-01-22T09:52:37.291Z,1.35
2023-01-22T09:55:09.426Z,1.50
2023-01-22T09:57:35.820Z,1.80
2023-01-22T10:00:03.488Z,1.58
2023-01-22T10:02:42.833Z,2.15
2023-01-22T10:05:35.596Z,2.10
2023-01-22T10:08:47.221Z,2.53
2023-01-22T10:11:13.609Z,1.63
2023-01-22T10:13:40.672Z,1.40
2023-01-22T10:16:07.439Z,1.83
2023-01-22T10:18:42.152Z,2.13
2023-01-22T10:21:21.088Z,1.35
2023-01-22T10:23:50.024Z,3.15
2023-01-22T10:26:17.782Z,1.52
2023-01-22T10:28:45.902Z,2.03
2023-01-22T10:31:30.852Z,1.58
2023-01-22T10:34:01.830Z,2.30
2023-01-22T10:36:29.501Z,1.50
2023-01-22T10:39:13.330Z,1.55
2023-01-22T10:41:40.914Z,1.98
2023-01-22T10:44:09.415Z,1.20
2023-01-22T10:46:35.934Z,2.50
2023-01-22T10:49:05.527Z,1.70
2023-01-22T10:54:01.067Z,1.80
2023-01-22T10:56:31.731Z,1.85
2023-01-22T10:59:01.908Z,1.67
2023-01-22T11:01:34.991Z,2.70
2023-01-22T11:04:21.523Z,1.52
2023-01-22T11:06:50.899Z,1.65
2023-01-22T11:09:25.181Z,1.77
2023-01-22T11:12:04.392Z,2.67
2023-01-22T11:14:35.489Z,1.55
2023-01-22T11:17:20.700Z,1.60
2023-01-22T11:20:17.944Z,1.42
2023-01-22T11:22:48.504Z,4.97
2023-01-22T11:25:15.067Z,2.08
2023-01-22T11:28:12.308Z,2.50
2023-01-22T11:30:53.498Z,2.28
2023-01-22T11:33:32.012Z,3.03
2023-01-22T11:36:19.686Z,1.70
2023-01-22T11:39:14.634Z,2.22
2023-01-22T11:41:59.476Z,2.95
2023-01-22T11:44:50.262Z,1.92
2023-01-22T11:47:27.530Z,2.97
2023-01-22T11:50:15.695Z,1.85
2023-01-22T11:52:53.227Z,2.17
2023-01-22T11:55:24.927Z,3.05
2023-01-22T11:58:17.486Z,4.57
2023-01-22T12:00:58.974Z,2.22
2023-01-22T12:03:34.491Z,1.83
2023-01-22T12:06:20.784Z,2.55
2023-01-22T12:08:56.117Z,2.08
2023-01-22T12:11:47.322Z,2.80
2023-01-22T12:14:32.091Z,2.20
2023-01-22T12:17:10.727Z,2.08
2023-01-22T12:20:14.163Z,2.50
2023-01-22T12:23:01.276Z,2.25
2023-01-22T12:25:39.396Z,1.73
2023-01-22T12:28:14.277Z,2.00
2023-01-22T12:30:46.862Z,2.00
2023-01-22T12:33:15.859Z,2.10
2023-01-22T12:35:42.478Z,3.20
2023-01-22T12:38:24.797Z,2.10
2023-01-22T12:41:11.242Z,2.33
2023-01-22T12:43:50.949Z,2.40
2023-01-22T12:46:45.050Z,2.03
2023-01-22T12:49:16.273Z,1.80
2023-01-22T12:51:48.351Z,2.67
2023-01-22T12:54:30.222Z,2.30
2023-01-22T12:57:20.620Z,2.22
2023-01-22T12:59:51.608Z,1.95
2023-01-22T13:02:22.727Z,2.55
2023-01-22T13:04:49.229Z,2.42
2023-01-22T13:07:36.079Z,2.60
2023-01-22T13:10:29.299Z,2.60
2023-01-22T13:12:58.970Z,2.75
2023-01-22T13:15:32.367Z,2.20
2023-01-22T13:18:27.773Z,3.80
2023-01-22T13:21:02.823Z,2.60
2023-01-22T13:23:34.584Z,1.75
2023-01-22T13:26:01.485Z,1.88
2023-01-22T13:28:28.187Z,2.25
2023-01-22T13:31:05.084Z,2.58
2023-01-22T13:33:31.973Z,1.92
2023-01-22T13:35:58.539Z,2.72
2023-01-22T13:38:30.851Z,2.83
2023-01-22T13:41:05.813Z,2.60
2023-01-22T13:43:33.907Z,2.05
2023-01-22T13:46:00.896Z,2.33
2023-01-22T13:48:27.469Z,1.65
2023-01-22T13:51:05.398Z,2.08
2023-01-22T13:53:41.893Z,2.15
2023-01-22T13:56:15.580Z,2.33
2023-01-22T13:58:48.209Z,1.90
2023-01-22T14:01:35.861Z,2.10
2023-01-22T14:04:07.331Z,2.33
2023-01-22T14:06:49.303Z,1.90
2023-01-22T14:11:51.660Z,1.52
2023-01-22T14:14:19.571Z,2.42
2023-01-22T14:16:46.115Z,2.05
2023-01-22T14:19:12.971Z,2.33
2023-01-22T14:21:39.526Z,2.00
2023-01-22T14:24:06.416Z,1.90
2023-01-22T14:26:33.061Z,2.70
2023-01-22T14:28:59.495Z,2.95
2023-01-22T14:31:25.933Z,2.90
2023-01-22T14:33:52.453Z,2.45
2023-01-22T14:36:20.281Z,2.63
2023-01-22T14:38:48.560Z,2.53
2023-01-22T14:41:14.970Z,1.90
2023-01-22T14:43:41.343Z,3.10
2023-01-22T14:46:08.503Z,2.25
2023-01-22T14:48:34.965Z,2.00
2023-01-22T14:51:07.737Z,2.17
2023-01-22T14:53:34.895Z,1.80
2023-01-22T14:56:01.375Z,2.53
2023-01-22T14:58:27.924Z,1.90
2023-01-22T15:00:54.400Z,1.90
2023-01-22T15:03:20.835Z,1.95
2023-01-22T15:05:51.042Z,1.95
2023-01-22T15:08:17.472Z,2.55
2023-01-22T15:10:43.901Z,2.00
2023-01-22T15:13:10.352Z,2.30
2023-01-22T15:15:36.721Z,2.53
2023-01-22T15:18:03.144Z,2.33
2023-01-22T15:20:29.580Z,2.00
2023-01-22T15:22:55.956Z,3.97
2023-01-22T15:25:22.322Z,2.75
2023-01-22T15:27:48.736Z,3.45
2023-01-22T15:30:15.440Z,2.25
2023-01-22T15:32:41.875Z,2.13
2023-01-22T15:35:08.692Z,1.70
2023-01-22T15:37:35.063Z,2.38
2023-01-22T15:40:02.143Z,2.50
2023-01-22T15:42:28.625Z,1.88
2023-01-22T15:44:55.044Z,1.70
2023-01-22T15:47:21.465Z,2.13
2023-01-22T15:49:47.841Z,2.05
2023-01-22T15:52:14.207Z,2.60
2023-01-22T15:54:40.608Z,2.03
2023-01-22T15:57:06.976Z,2.10
2023-01-22T15:59:33.536Z,2.97
2023-01-22T16:01:59.939Z,2.20
2023-01-22T16:04:26.310Z,2.15
2023-01-22T16:06:52.860Z,2.20
2023-01-22T16:09:19.323Z,2.53
2023-01-22T16:11:45.700Z,1.83
2023-01-22T16:14:12.112Z,2.50
2023-01-22T16:16:38.581Z,2.00
2023-01-22T16:19:07.574Z,2.03
2023-01-22T16:21:34.155Z,3.38
2023-01-22T16:24:01.553Z,2.90
2023-01-22T16:26:30.524Z,3.05
2023-01-22T16:28:59.106Z,2.63
2023-01-22T16:31:31.834Z,2.10
2023-01-22T16:34:18.307Z,2.03
2023-01-22T16:36:45.097Z,3.00
2023-01-22T16:39:19.887Z,2.85
2023-01-22T16:41:48.598Z,3.08
2023-01-22T16:44:17.799Z,2.65
2023-01-22T16:46:49.469Z,2.33
2023-01-22T16:49:19.084Z,2.65
2023-01-22T16:54:18.029Z,2.90
2023-01-22T16:56:44.442Z,2.55
2023-01-22T16:59:11.263Z,2.70
2023-01-22T17:01:40.864Z,3.25
2023-01-22T17:04:07.759Z,2.30
2023-01-22T17:06:40.400Z,2.50
2023-01-22T17:09:08.228Z,3.17
2023-01-22T17:11:34.607Z,2.05
2023-01-22T17:14:01.081Z,2.83
2023-01-22T17:16:27.602Z,2.15
2023-01-22T17:18:54.826Z,2.30
2023-01-22T17:21:21.546Z,2.22
2023-01-22T17:23:47.940Z,1.85
2023-01-22T17:26:16.308Z,2.67
2023-01-22T17:28:42.946Z,2.67
2023-01-22T17:31:17.739Z,1.95
2023-01-22T17:33:44.486Z,2.70
2023-01-22T17:36:13.248Z,1.85
2023-01-22T17:38:39.801Z,2.58
2023-01-22T17:41:15.703Z,1.98
2023-01-22T17:43:43.659Z,3.20
2023-01-22T17:46:15.457Z,2.50
2023-01-22T17:48:42.844Z,2.95
2023-01-22T17:51:15.627Z,2.97
2023-01-22T17:53:43.374Z,2.30
2023-01-22T17:56:22.217Z,3.50
2023-01-22T17:58:50.981Z,3.30
2023-01-22T18:01:19.394Z,3.45
2023-01-22T18:03:46.711Z,1.98
2023-01-22T18:06:13.809Z,2.97
2023-01-22T18:08:42.148Z,3.55
2023-01-22T18:11:10.802Z,3.08
2023-01-22T18:13:38.191Z,3.85
2023-01-22T18:16:06.034Z,3.42
2023-01-22T18:18:32.495Z,3.17
2023-01-22T18:20:59.123Z,2.80
2023-01-22T18:23:25.701Z,3.85
2023-01-22T18:25:56.174Z,2.83
2023-01-22T18:28:25.215Z,3.17
2023-01-22T18:30:52.410Z,3.35
2023-01-22T18:33:20.582Z,2.85
2023-01-22T18:35:49.289Z,3.50
2023-01-22T18:38:16.462Z,2.45
2023-01-22T18:40:42.816Z,3.85
2023-01-22T18:43:10.076Z,3.22
2023-01-22T18:45:36.953Z,2.83
2023-01-22T18:48:04.489Z,3.17
2023-01-22T18:50:30.937Z,3.17
2023-01-22T18:52:57.773Z,4.13
2023-01-22T18:55:24.358Z,3.15
2023-01-22T18:57:54.395Z,3.42
2023-01-22T19:00:20.915Z,3.30
2023-01-22T19:02:55.146Z,2.92
2023-01-22T19:05:22.630Z,3.30
2023-01-22T19:07:49.101Z,3.20
2023-01-22T19:10:16.620Z,3.95
2023-01-22T19:12:43.069Z,3.20
2023-01-22T19:15:10.368Z,3.30
2023-01-22T19:17:36.788Z,4.72
2023-01-22T19:20:07.522Z,3.72
2023-01-22T19:22:34.839Z,3.78
2023-01-22T19:25:02.769Z,4.35
2023-01-22T19:27:30.094Z,3.75
2023-01-22T19:29:56.603Z,3.65
2023-01-22T19:32:27.728Z,3.58
2023-01-22T19:34:54.967Z,3.50
2023-01-22T19:37:21.427Z,3.70
2023-01-22T19:39:47.892Z,3.63
2023-01-22T19:42:15.350Z,3.83
2023-01-22T19:44:42.873Z,3.13
2023-01-22T19:47:10.874Z,3.88
2023-01-22T19:49:37.428Z,6.03
2023-01-22T19:52:03.859Z,3.60
2023-01-22T19:54:30.306Z,4.10
2023-01-22T19:56:56.755Z,3.05
2023-01-22T19:59:23.929Z,3.30
2023-01-22T20:01:51.015Z,3.88
2023-01-22T20:04:26.842Z,4.07
2023-01-22T20:09:27.072Z,4.00
2023-01-22T20:11:54.933Z,3.60
2023-01-22T20:14:22.553Z,4.00
2023-01-22T20:16:49.307Z,3.63
2023-01-22T20:19:16.140Z,3.25
2023-01-22T20:21:42.550Z,3.33
2023-01-22T20:24:09.340Z,4.30
2023-01-22T20:26:35.793Z,4.05
2023-01-22T20:29:02.263Z,3.60
2023-01-22T20:31:28.698Z,3.72
2023-01-22T20:33:56.898Z,3.67
2023-01-22T20:36:25.439Z,3.47
2023-01-22T20:38:53.094Z,4.90
2023-01-22T20:41:20.136Z,3.20
2023-01-22T20:43:46.644Z,3.28
2023-01-22T20:46:18.521Z,4.13
2023-01-22T20:48:45.463Z,3.63
2023-01-22T20:51:17.562Z,3.63
2023-01-22T20:53:45.047Z,3.95
2023-01-22T20:56:14.351Z,3.65
2023-01-22T20:58:41.553Z,2.85
2023-01-22T21:01:15.589Z,4.03
2023-01-22T21:03:43.358Z,4.05
2023-01-22T21:06:13.908Z,2.80
2023-01-22T21:08:41.375Z,3.40
2023-01-22T21:11:11.620Z,4.05
2023-01-22T21:13:38.132Z,3.70
2023-01-22T21:16:09.862Z,3.75
2023-01-22T21:18:37.544Z,4.72
2023-01-22T21:21:04.910Z,3.72
2023-01-22T21:23:31.379Z,3.17
2023-01-22T21:26:03.439Z,3.65
2023-01-22T21:28:29.881Z,4.22
2023-01-22T21:30:56.559Z,3.17
2023-01-22T21:33:23.069Z,4.93
2023-01-22T21:35:49.764Z,2.63
2023-01-22T21:38:16.248Z,3.55
2023-01-22T21:40:42.713Z,2.78
2023-01-22T21:43:31.780Z,3.05
2023-01-22T21:46:17.440Z,3.50
2023-01-22T21:48:43.857Z,2.90
2023-01-22T21:51:10.292Z,3.20
2023-01-22T21:53:36.696Z,3.30
2023-01-22T21:56:03.111Z,3.47
2023-01-22T21:58:29.554Z,3.63
2023-01-22T22:01:03.698Z,4.32
2023-01-22T22:03:32.679Z,3.08
2023-01-22T22:06:02.306Z,3.40
2023-01-22T22:08:29.179Z,4.70
2023-01-22T22:10:56.004Z,2.65
2023-01-22T22:13:22.458Z,3.35
2023-01-22T22:15:49.410Z,3.38
2023-01-22T22:18:15.813Z,2.80
2023-01-22T22:20:42.357Z,3.67
2023-01-22T22:23:08.881Z,2.97
2023-01-22T22:25:35.590Z,3.75
2023-01-22T22:28:01.984Z,3.17
2023-01-22T22:30:28.419Z,3.78
2023-01-22T22:32:54.861Z,3.25
2023-01-22T22:35:21.839Z,3.50
2023-01-22T22:37:48.355Z,3.78
2023-01-22T22:40:14.849Z,3.42
2023-01-22T22:42:41.276Z,4.03
2023-01-22T22:45:08.984Z,3.58
2023-01-22T22:47:36.271Z,3.70
2023-01-22T22:50:04.612Z,4.57
2023-01-22T22:52:33.477Z,3.67
2023-01-22T22:54:59.910Z,3.95
2023-01-22T22:57:26.316Z,3.30
2023-01-22T22:59:52.785Z,4.35
2023-01-22T23:02:20.955Z,2.90
2023-01-22T23:04:47.484Z,3.13
2023-01-22T23:07:13.989Z,4.10
2023-01-22T23:09:40.433Z,4.45
2023-01-22T23:12:07.347Z,4.45
2023-01-22T23:14:33.808Z,4.50
2023-01-22T23:17:00.371Z,4.70
2023-01-22T23:19:26.940Z,4.28
2023-01-22T23:21:58.330Z,4.50
2023-01-22T23:24:25.177Z,6.03
2023-01-22T23:26:52.091Z,7.00
2023-01-22T23:29:20.974Z,6.03
2023-01-22T23:31:48.074Z,4.18
2023-01-22T23:34:17.500Z,5.07
2023-01-22T23:36:45.331Z,5.68
2023-01-22T23:39:17.558Z,5.18
2023-01-22T23:41:44.421Z,5.05
2023-01-22T23:44:11.639Z,4.50
2023-01-22T23:46:38.723Z,5.45
2023-01-22T23:49:05.509Z,6.03
2023-01-22T23:51:32.024Z,5.78
2023-01-22T23:53:58.619Z,4.57
2023-01-22T23:56:26.716Z,6.55
2023-01-22T23:58:54.696Z,5.18
